Condicions actuals
Mostly Clear
Conditions



Pressió:
1020.92 (hPa) - 30.15 (inHG)
Visibilitat:

10.0 (km) - 6.2 (miles)
Base de Núvols

Clar (Mts) - Clar (Feets)
   Temperatura
23  °C
Temperatura
11  °C
P.ros.
47  %
 Humitat
   Velocitat del Vent
8  km/h
4  kts
5  mph
2.2  m/s
   Vent Direcció
N
45°
E
90°
135°
S
180°
225°
O
270°
315°
 260°

Del   Oest
   Airport Data
LELL
Sabadell Airport
Metar :LELL 240900Z 26004KT 200V320 CAVOK 23/11 Q1021
Thu 24th June 11:00 am
   Raw Metar Info
Raw METAR is the most common format in the world for the transmission of observational weather data. It is highly standardized through the International Civil Aviation Organization (ICAO), which allows it to be understood throughout most of the world.
   API Info
Data Provided by
https://www.checkwx.com/weather/LELL

Aviation Weather providing METAR, TAF, AIRMET, SIGMET and OUTLOOK Weather Reports
   © Info
CSS/SVG/PHP scripts were developed by weather34.com for use in the weather34 template © 2015-2021

Guide Info provided by Metar-Wikipedia